Time;durP1;ratioP1;P1;durP2;ratioP2;P2;SDS_P1;SDS_P2;PMS_P1;PMS_P2;Temp;Humidity;BMP_temperature;BMP_pressure;BME280_temperature;BME280_humidity;BME280_pressure;Samples;Min_cycle;Max_cycle;Signal;HPM_P1;HPM_P2
2021/08/12 00:00:56;;;;;;;11.63;7.83;;;;;;;14.16;73.58;100680.98;1705552;83;25957;-70
2021/08/12 00:03:23;;;;;;;14.93;8.28;;;;;;;14.12;73.53;100681.40;1687824;83;25632;-70
2021/08/12 00:05:49;;;;;;;13.05;7.53;;;;;;;14.10;73.79;100683.08;1704017;83;25530;-70
2021/08/12 00:08:15;;;;;;;14.43;8.08;;;;;;;14.10;73.84;100682.29;1712584;83;28255;-69
2021/08/12 00:10:42;;;;;;;10.75;7.37;;;;;;;14.09;74.09;100682.83;1721010;83;26111;-70
2021/08/12 00:13:09;;;;;;;12.18;7.37;;;;;;;14.09;74.01;100684.19;1724334;83;25758;-70
2021/08/12 00:15:35;;;;;;;12.85;7.08;;;;;;;14.09;73.92;100679.32;1724252;83;26195;-69
2021/08/12 00:18:01;;;;;;;12.33;7.75;;;;;;;14.09;73.81;100686.12;1724305;83;25816;-69
2021/08/12 00:20:27;;;;;;;11.93;7.37;;;;;;;14.07;74.10;100687.80;1724468;83;27293;-68
2021/08/12 00:22:54;;;;;;;13.45;7.25;;;;;;;14.06;74.01;100692.20;1724033;83;26418;-69
2021/08/12 00:25:20;;;;;;;10.85;6.25;;;;;;;14.03;73.87;100690.94;1724238;83;25760;-69
2021/08/12 00:27:46;;;;;;;9.95;7.25;;;;;;;14.00;73.92;100691.01;1691559;83;25811;-69
2021/08/12 00:30:13;;;;;;;11.55;6.53;;;;;;;14.00;74.45;100688.86;1724321;83;25693;-73
2021/08/12 00:32:39;;;;;;;12.78;6.87;;;;;;;13.98;74.08;100691.89;1730383;80;27321;-74
2021/08/12 00:35:08;;;;;;;14.15;6.95;;;;;;;13.99;74.56;100698.13;1724597;83;25768;-74
2021/08/12 00:37:35;;;;;;;12.82;6.65;;;;;;;13.97;74.53;100695.73;1716462;83;25794;-73
2021/08/12 00:40:01;;;;;;;10.85;7.05;;;;;;;13.93;74.36;100695.35;1725005;83;26166;-73
2021/08/12 00:42:28;;;;;;;9.58;6.22;;;;;;;13.92;74.65;100696.46;1725046;83;25626;-73
2021/08/12 00:44:55;;;;;;;12.95;6.33;;;;;;;13.89;74.46;100697.09;1725061;83;27318;-72
2021/08/12 00:47:21;;;;;;;9.95;6.05;;;;;;;13.87;74.40;100693.91;1724977;83;25879;-73
2021/08/12 00:49:47;;;;;;;11.18;6.47;;;;;;;13.87;74.80;100696.62;1725044;83;25899;-73
2021/08/12 00:52:14;;;;;;;14.43;6.87;;;;;;;13.82;74.71;100687.52;1716501;83;27927;-73
2021/08/12 00:54:41;;;;;;;11.43;6.33;;;;;;;13.79;74.95;100690.06;1725186;83;26378;-73
2021/08/12 00:57:09;;;;;;;9.18;6.78;;;;;;;13.78;74.96;100697.42;1725115;83;27324;-74
2021/08/12 00:59:38;;;;;;;11.63;6.65;;;;;;;13.75;75.22;100693.19;1724998;83;26451;-74
2021/08/12 01:02:10;;;;;;;9.45;6.42;;;;;;;13.74;75.02;100697.02;1725185;83;25840;-73
2021/08/12 01:04:44;;;;;;;12.73;6.25;;;;;;;13.72;74.87;100693.25;1720807;83;25876;-73
2021/08/12 01:07:28;;;;;;;10.93;6.42;;;;;;;13.71;74.95;100699.04;1724082;83;25761;-74
2021/08/12 01:10:15;;;;;;;12.58;6.53;;;;;;;13.68;74.90;100702.39;1721517;82;27355;-74
2021/08/12 01:13:08;;;;;;;9.35;6.10;;;;;;;13.64;74.83;100700.30;1715303;83;25677;-74
2021/08/12 01:15:45;;;;;;;14.20;7.10;;;;;;;13.61;74.82;100702.87;1714978;83;25734;-74
2021/08/12 01:18:30;;;;;;;11.63;6.85;;;;;;;13.57;74.71;100707.33;1715320;83;25724;-72
2021/08/12 01:21:02;;;;;;;11.90;7.55;;;;;;;13.52;74.71;100709.66;1715262;83;25705;-72
2021/08/12 01:23:30;;;;;;;12.35;6.80;;;;;;;13.49;74.99;100712.22;1715352;83;27221;-72
2021/08/12 01:25:59;;;;;;;12.80;6.87;;;;;;;13.47;74.82;100713.07;1715342;83;25848;-72
2021/08/12 01:28:40;;;;;;;15.03;7.00;;;;;;;13.42;75.01;100712.69;1715392;83;25770;-73
2021/08/12 01:31:48;;;;;;;14.33;7.30;;;;;;;13.42;75.13;100715.41;1714916;83;26782;-72
2021/08/12 01:34:56;;;;;;;10.25;6.25;;;;;;;13.38;75.15;100717.96;1660147;85;26469;-72
2021/08/12 01:37:31;;;;;;;12.35;7.30;;;;;;;13.34;75.29;100721.63;1660431;85;28210;-72
2021/08/12 01:40:00;;;;;;;10.45;6.90;;;;;;;13.31;75.69;100717.58;1659932;85;26181;-72
2021/08/12 01:42:28;;;;;;;12.47;7.25;;;;;;;13.26;76.04;100717.19;1660124;85;25718;-73
2021/08/12 01:44:55;;;;;;;13.65;7.67;;;;;;;13.26;76.45;100715.01;1660915;85;26343;-74
2021/08/12 01:47:24;;;;;;;14.20;7.83;;;;;;;13.24;76.41;100717.25;1660471;85;25718;-73
2021/08/12 01:49:52;;;;;;;10.08;6.28;;;;;;;13.23;76.37;100714.31;1660324;85;27338;-74
2021/08/12 01:52:21;;;;;;;12.37;6.47;;;;;;;13.20;76.27;100713.58;1660881;85;25732;-74
2021/08/12 01:54:50;;;;;;;16.25;7.90;;;;;;;13.18;76.30;100715.25;1660642;85;26406;-74
2021/08/12 01:57:18;;;;;;;10.35;6.28;;;;;;;13.18;76.37;100717.17;1637508;85;25741;-73
2021/08/12 01:59:46;;;;;;;12.07;6.55;;;;;;;13.16;76.25;100716.13;1660300;85;26397;-74
2021/08/12 02:02:14;;;;;;;10.20;6.42;;;;;;;13.14;75.99;100718.34;1659956;85;28240;-74
2021/08/12 02:04:43;;;;;;;17.87;6.87;;;;;;;13.11;76.16;100717.63;1669743;83;25856;-74
2021/08/12 02:07:11;;;;;;;13.40;6.70;;;;;;;13.10;76.27;100722.81;1715358;83;25757;-73
2021/08/12 02:09:38;;;;;;;10.05;6.95;;;;;;;13.06;76.04;100721.28;1715183;83;25694;-72
2021/08/12 02:12:08;;;;;;;11.18;6.35;;;;;;;13.05;76.18;100732.45;1737774;82;25730;-73
2021/08/12 02:14:35;;;;;;;11.68;6.60;;;;;;;13.00;76.21;100730.67;1735684;82;28978;-72
2021/08/12 02:17:02;;;;;;;15.28;7.28;;;;;;;12.96;76.21;100733.00;1737909;82;25698;-74
2021/08/12 02:19:30;;;;;;;11.73;6.95;;;;;;;12.95;76.73;100730.82;1711851;82;25778;-72
2021/08/12 02:22:01;;;;;;;10.55;7.45;;;;;;;12.94;76.92;100735.20;1711820;82;25755;-73
2021/08/12 02:24:38;;;;;;;16.10;7.80;;;;;;;12.93;77.27;100737.12;1737429;82;25753;-74
2021/08/12 02:27:08;;;;;;;11.45;7.08;;;;;;;12.91;77.24;100732.58;1736813;82;27371;-73
2021/08/12 02:29:36;;;;;;;13.20;7.28;;;;;;;12.91;77.56;100730.42;1737435;82;26446;-73
2021/08/12 02:32:07;;;;;;;17.17;8.15;;;;;;;12.88;77.62;100731.84;1737995;82;25789;-74
2021/08/12 02:34:36;;;;;;;15.60;8.35;;;;;;;12.88;77.90;100731.84;1737913;82;25714;-74
2021/08/12 02:37:07;;;;;;;14.13;7.78;;;;;;;12.88;78.17;100736.70;1738274;82;25792;-73
2021/08/12 02:39:35;;;;;;;15.78;7.12;;;;;;;12.87;78.01;100737.83;1738224;82;27311;-74
2021/08/12 02:42:04;;;;;;;10.80;7.47;;;;;;;12.87;77.94;100732.94;1736811;82;26002;-74
2021/08/12 02:44:33;;;;;;;12.25;7.47;;;;;;;12.86;77.83;100734.07;1737988;82;25722;-74
2021/08/12 02:47:03;;;;;;;10.73;7.87;;;;;;;12.85;78.27;100733.81;1738069;82;26552;-74
2021/08/12 02:49:43;;;;;;;12.85;7.65;;;;;;;12.85;78.29;100729.75;1737881;82;25788;-73
2021/08/12 02:52:10;;;;;;;15.13;7.90;;;;;;;12.84;78.20;100733.03;1738327;82;27320;-73
2021/08/12 02:54:38;;;;;;;10.18;6.62;;;;;;;12.84;78.30;100733.59;1738038;82;25857;-74
2021/08/12 02:57:06;;;;;;;9.28;6.92;;;;;;;12.83;78.43;100736.84;1738020;82;25735;-73
2021/08/12 02:59:35;;;;;;;11.80;7.55;;;;;;;12.81;78.21;100739.64;1711473;82;25735;-73
2021/08/12 03:02:04;;;;;;;9.57;6.30;;;;;;;12.79;78.39;100742.66;1736565;82;25761;-73
2021/08/12 03:04:31;;;;;;;13.00;6.78;;;;;;;12.78;78.16;100742.97;1738509;82;29819;-74
2021/08/12 03:06:59;;;;;;;12.95;6.70;;;;;;;12.77;78.10;100746.79;1738103;82;25790;-76
2021/08/12 03:09:27;;;;;;;10.82;6.55;;;;;;;12.74;78.07;100749.59;1738285;82;25715;-73
2021/08/12 03:11:57;;;;;;;8.08;6.28;;;;;;;12.74;78.34;100753.66;1738223;82;25794;-73
2021/08/12 03:14:24;;;;;;;9.53;6.90;;;;;;;12.72;78.25;100749.11;1738277;82;25714;-74
2021/08/12 03:16:51;;;;;;;9.68;6.87;;;;;;;12.71;78.23;100751.56;1737980;82;28114;-74
2021/08/12 03:19:18;;;;;;;13.38;7.03;;;;;;;12.68;78.11;100748.93;1738026;82;25825;-74
2021/08/12 03:22:04;;;;;;;10.75;6.80;;;;;;;12.67;78.27;100750.03;1738334;82;25709;-73
2021/08/12 03:24:35;;;;;;;16.57;7.78;;;;;;;12.65;78.41;100752.27;1738299;82;26040;-72
2021/08/12 03:27:03;;;;;;;10.70;6.75;;;;;;;12.65;78.61;100746.02;1738566;82;25762;-72
2021/08/12 03:29:30;;;;;;;12.75;7.22;;;;;;;12.64;78.49;100753.36;1737949;82;27319;-73
2021/08/12 03:31:56;;;;;;;12.00;6.92;;;;;;;12.63;78.20;100750.95;1738153;82;26360;-72
2021/08/12 03:34:23;;;;;;;9.23;5.87;;;;;;;12.62;78.05;100751.52;1736897;82;25729;-73
2021/08/12 03:36:49;;;;;;;10.63;6.67;;;;;;;12.61;78.19;100755.34;1697921;82;25754;-74
2021/08/12 03:39:16;;;;;;;11.48;7.42;;;;;;;12.60;77.99;100759.18;1737795;82;25675;-74
2021/08/12 03:41:42;;;;;;;9.88;6.55;;;;;;;12.60;78.29;100766.50;1737727;82;27368;-73
2021/08/12 03:44:09;;;;;;;13.03;7.00;;;;;;;12.59;78.10;100767.62;1738160;82;25770;-74
2021/08/12 03:46:36;;;;;;;10.65;7.05;;;;;;;12.57;78.20;100764.43;1738315;82;26118;-76
2021/08/12 03:49:03;;;;;;;9.28;7.12;;;;;;;12.56;78.28;100769.03;1738330;82;26189;-73
2021/08/12 03:51:30;;;;;;;10.53;6.42;;;;;;;12.55;78.33;100768.81;1738449;82;25718;-73
2021/08/12 03:53:58;;;;;;;9.08;7.65;;;;;;;12.55;78.38;100770.16;1737960;82;27311;-73
2021/08/12 03:56:24;;;;;;;12.10;7.05;;;;;;;12.52;78.33;100770.22;1737879;82;25699;-73
2021/08/12 03:58:51;;;;;;;14.03;7.30;;;;;;;12.51;78.67;100769.98;1737955;82;25739;-73
2021/08/12 04:01:18;;;;;;;10.82;6.62;;;;;;;12.51;78.71;100777.30;1738039;82;26341;-73
2021/08/12 04:03:44;;;;;;;12.35;7.53;;;;;;;12.51;78.77;100778.66;1738210;82;25820;-73
2021/08/12 04:06:12;;;;;;;9.88;7.30;;;;;;;12.52;78.88;100777.56;1737747;82;29214;-73
2021/08/12 04:08:39;;;;;;;10.10;7.47;;;;;;;12.52;79.03;100774.84;1738123;82;26104;-73
2021/08/12 04:11:06;;;;;;;11.97;7.42;;;;;;;12.54;79.33;100780.77;1732218;82;26022;-73
2021/08/12 04:13:32;;;;;;;12.23;8.03;;;;;;;12.56;79.54;100777.73;1737059;82;25689;-73
2021/08/12 04:15:58;;;;;;;10.68;7.67;;;;;;;12.60;79.89;100780.06;1736759;82;25685;-73
2021/08/12 04:18:25;;;;;;;12.98;7.42;;;;;;;12.61;80.04;100781.12;1738390;82;28027;-73
2021/08/12 04:20:51;;;;;;;15.65;8.30;;;;;;;12.65;80.04;100779.94;1737446;82;25702;-73
2021/08/12 04:23:18;;;;;;;11.28;7.37;;;;;;;12.67;79.97;100785.87;1711425;82;25839;-73
2021/08/12 04:25:45;;;;;;;12.23;7.92;;;;;;;12.69;80.22;100788.52;1737962;82;25775;-74
2021/08/12 04:28:12;;;;;;;14.80;8.33;;;;;;;12.71;80.34;100787.64;1738383;82;25663;-73
2021/08/12 04:30:40;;;;;;;12.20;7.78;;;;;;;12.77;80.33;100792.40;1738103;82;28096;-70
2021/08/12 04:33:06;;;;;;;12.30;7.85;;;;;;;12.82;80.56;100795.52;1736186;82;25785;-74
2021/08/12 04:35:33;;;;;;;10.13;7.85;;;;;;;12.86;80.58;100794.59;1738407;82;25690;-74
2021/08/12 04:37:59;;;;;;;12.68;8.10;;;;;;;12.93;80.83;100798.78;1738315;82;25702;-74
2021/08/12 04:40:26;;;;;;;14.75;8.58;;;;;;;12.98;80.94;100798.08;1738239;82;25706;-71
2021/08/12 04:42:53;;;;;;;14.68;8.80;;;;;;;13.05;81.09;100799.78;1738285;82;27511;-73
2021/08/12 04:45:21;;;;;;;14.85;8.55;;;;;;;13.11;81.25;100807.25;1738046;82;25701;-73
2021/08/12 04:47:47;;;;;;;14.07;9.85;;;;;;;13.20;81.50;100807.28;1738084;82;25783;-73
2021/08/12 04:50:15;;;;;;;17.40;9.03;;;;;;;13.26;81.72;100806.01;1738274;82;26385;-73
2021/08/12 04:52:42;;;;;;;14.05;9.05;;;;;;;13.34;81.81;100803.92;1738184;82;25785;-73
2021/08/12 04:55:11;;;;;;;14.15;8.70;;;;;;;13.42;82.07;100808.58;1738007;82;27345;-73
2021/08/12 04:57:37;;;;;;;17.00;9.08;;;;;;;13.52;82.16;100808.03;1735927;82;25768;-72
2021/08/12 05:00:06;;;;;;;13.50;9.53;;;;;;;13.59;82.33;100808.39;1738370;82;25667;-73
2021/08/12 05:02:33;;;;;;;14.05;9.65;;;;;;;13.67;82.33;100800.00;1736323;82;25812;-73
2021/08/12 05:05:00;;;;;;;18.17;10.45;;;;;;;13.76;82.57;100805.70;1737717;82;25722;-80
2021/08/12 05:07:26;;;;;;;15.50;10.30;;;;;;;13.86;82.67;100811.94;1738420;82;29540;-81
2021/08/12 05:09:53;;;;;;;14.63;10.23;;;;;;;13.95;82.77;100810.04;1738376;82;25673;-64
2021/08/12 05:12:20;;;;;;;16.02;9.58;;;;;;;14.04;82.79;100808.11;1738217;82;25669;-65
2021/08/12 05:14:49;;;;;;;13.70;9.43;;;;;;;14.18;83.27;100807.95;1737901;82;25660;-68
2021/08/12 05:17:15;;;;;;;13.85;10.15;;;;;;;14.32;83.30;100808.59;1738369;82;25729;-68
2021/08/12 05:19:43;;;;;;;19.73;13.78;;;;;;;14.43;83.08;100808.27;1738177;82;27431;-69
2021/08/12 05:22:11;;;;;;;21.95;14.18;;;;;;;14.54;83.13;100808.15;1738277;82;25811;-69
2021/08/12 05:24:38;;;;;;;14.73;9.48;;;;;;;14.67;83.21;100811.28;1738422;82;25681;-69
2021/08/12 05:27:06;;;;;;;13.93;9.03;;;;;;;14.79;82.99;100811.98;1738145;82;25892;-62
2021/08/12 05:29:33;;;;;;;12.60;8.93;;;;;;;14.91;83.02;100814.02;1737098;82;25755;-63
2021/08/12 05:32:00;;;;;;;11.15;7.90;;;;;;;15.04;83.04;100814.95;1731158;82;27326;-63
2021/08/12 05:34:27;;;;;;;13.85;8.68;;;;;;;15.18;82.83;100818.83;1729421;82;25884;-62
2021/08/12 05:36:53;;;;;;;18.45;8.55;;;;;;;15.32;82.83;100816.66;1728777;82;25703;-62
2021/08/12 05:39:20;;;;;;;43.45;25.97;;;;;;;15.48;82.67;100823.16;1728239;82;26398;-62
2021/08/12 05:41:46;;;;;;;19.20;12.18;;;;;;;15.67;82.83;100825.45;1676063;85;25770;-62
2021/08/12 05:44:13;;;;;;;18.15;8.83;;;;;;;15.84;82.38;100818.33;1728768;82;27305;-62
2021/08/12 05:46:39;;;;;;;14.38;7.47;;;;;;;16.02;81.81;100826.63;1728618;82;27184;-62
2021/08/12 05:49:05;;;;;;;10.72;7.22;;;;;;;16.19;81.24;100837.15;1728746;82;25716;-62
2021/08/12 05:51:32;;;;;;;13.05;7.47;;;;;;;16.39;81.04;100830.88;1728425;82;26440;-62
2021/08/12 05:53:58;;;;;;;14.55;7.40;;;;;;;16.59;80.43;100836.07;1729403;82;25814;-62
2021/08/12 05:56:24;;;;;;;15.65;6.62;;;;;;;16.78;80.04;100835.55;1729360;82;27319;-62
2021/08/12 05:58:51;;;;;;;14.43;7.50;;;;;;;16.95;79.37;100833.80;1729407;82;25716;-62
2021/08/12 06:01:17;;;;;;;15.93;6.65;;;;;;;17.12;78.72;100837.70;1728958;82;25697;-62
2021/08/12 06:03:44;;;;;;;11.85;6.70;;;;;;;17.31;78.72;100840.45;1728069;82;25718;-62
2021/08/12 06:06:10;;;;;;;15.32;7.05;;;;;;;17.50;78.32;100841.24;1729508;82;25691;-62
2021/08/12 06:08:36;;;;;;;13.28;6.40;;;;;;;17.69;78.51;100846.94;1729434;82;27379;-62
2021/08/12 06:11:03;;;;;;;14.00;6.25;;;;;;;17.87;78.31;100841.23;1729003;82;27180;-61
2021/08/12 06:13:30;;;;;;;15.50;6.95;;;;;;;18.04;77.11;100841.55;1729797;82;25782;-62
2021/08/12 06:15:58;;;;;;;13.80;7.03;;;;;;;18.19;77.26;100835.92;1729472;82;26263;-62
2021/08/12 06:18:24;;;;;;;13.75;7.15;;;;;;;18.37;76.87;100836.41;1729402;82;25683;-62
2021/08/12 06:20:51;;;;;;;16.40;7.40;;;;;;;18.53;76.11;100844.11;1729452;82;26867;-62
2021/08/12 06:23:18;;;;;;;15.25;5.83;;;;;;;18.66;74.62;100846.20;1729283;82;25750;-62
2021/08/12 06:25:45;;;;;;;14.05;6.15;;;;;;;18.77;74.61;100847.30;1729587;82;25773;-62
2021/08/12 06:28:12;;;;;;;12.70;6.30;;;;;;;18.92;74.07;100849.87;1729719;82;25735;-61
2021/08/12 06:30:38;;;;;;;15.00;7.03;;;;;;;19.09;73.62;100852.84;1729580;82;25863;-61
2021/08/12 06:33:06;;;;;;;13.13;5.53;;;;;;;19.25;73.63;100850.09;1729625;82;27385;-61
2021/08/12 06:35:34;;;;;;;12.23;6.65;;;;;;;19.44;73.41;100854.06;1729560;82;25676;-62
2021/08/12 06:38:02;;;;;;;9.27;4.50;;;;;;;19.67;72.80;100849.52;1729850;82;25693;-62
2021/08/12 06:40:29;;;;;;;9.93;4.50;;;;;;;19.84;71.46;100852.48;1696766;82;26414;-62
2021/08/12 06:42:56;;;;;;;6.12;3.22;;;;;;;20.03;70.68;100852.29;1729641;82;25786;-62
2021/08/12 06:45:26;;;;;;;5.65;4.03;;;;;;;20.22;69.49;100846.80;1729529;82;27176;-62
2021/08/12 06:47:54;;;;;;;5.12;3.40;;;;;;;20.40;68.97;100847.17;1727855;82;25790;-62
2021/08/12 06:50:22;;;;;;;5.75;3.62;;;;;;;20.62;68.30;100847.56;1729379;82;25778;-62
2021/08/12 06:52:49;;;;;;;6.40;3.80;;;;;;;20.86;67.89;100846.48;1729381;82;25908;-62
2021/08/12 06:55:15;;;;;;;9.73;4.60;;;;;;;21.09;67.67;100843.72;1729335;82;25760;-62
2021/08/12 06:57:42;;;;;;;5.12;2.92;;;;;;;21.34;66.96;100839.22;1729289;82;27411;-62
2021/08/12 07:00:11;;;;;;;7.28;3.35;;;;;;;21.56;65.51;100844.50;1729297;82;25579;-62
2021/08/12 07:02:39;;;;;;;4.15;2.58;;;;;;;21.75;64.95;100851.26;1685291;82;25726;-62
2021/08/12 07:05:07;;;;;;;4.83;2.95;;;;;;;21.94;63.10;100848.17;1729398;82;25712;-63
2021/08/12 07:07:33;;;;;;;6.60;3.00;;;;;;;22.13;63.83;100850.77;1708850;82;26462;-62
2021/08/12 07:09:59;;;;;;;4.10;2.95;;;;;;;22.45;63.75;100856.50;1729274;82;28216;-62
2021/08/12 07:12:26;;;;;;;5.03;2.83;;;;;;;22.78;63.19;100857.63;1728643;82;25800;-63
2021/08/12 07:14:53;;;;;;;5.85;2.83;;;;;;;23.06;62.28;100855.77;1722430;82;25752;-62
2021/08/12 07:17:19;;;;;;;4.70;2.55;;;;;;;23.30;61.67;100860.69;1721074;83;26369;-62
2021/08/12 07:19:45;;;;;;;4.45;2.98;;;;;;;23.57;61.13;100855.56;1721228;83;25696;-62
2021/08/12 07:22:12;;;;;;;7.15;2.52;;;;;;;23.84;59.85;100859.70;1721061;83;27399;-66
2021/08/12 07:24:38;;;;;;;6.33;3.10;;;;;;;24.02;59.45;100862.57;1720856;82;25747;-65
2021/08/12 07:27:05;;;;;;;5.50;3.40;;;;;;;24.27;58.73;100866.62;1719602;83;26220;-66
2021/08/12 07:29:31;;;;;;;4.72;3.50;;;;;;;24.51;58.44;100865.90;1721650;82;25802;-65
2021/08/12 07:31:57;;;;;;;6.92;2.98;;;;;;;24.72;56.77;100863.02;1721049;83;25695;-65
2021/08/12 07:34:24;;;;;;;6.97;3.20;;;;;;;24.86;56.57;100862.23;1721050;83;27403;-65
2021/08/12 07:36:50;;;;;;;8.45;2.90;;;;;;;25.08;55.50;100862.48;1721516;82;25838;-64
2021/08/12 07:39:16;;;;;;;6.55;2.85;;;;;;;25.21;53.39;100866.23;1720167;82;26388;-64
2021/08/12 07:41:44;;;;;;;5.28;2.33;;;;;;;25.33;54.36;100861.70;1721273;82;25711;-65
2021/08/12 07:44:13;;;;;;;4.30;2.40;;;;;;;25.49;53.66;100865.46;1720844;83;25757;-65
2021/08/12 07:46:41;;;;;;;4.67;2.52;;;;;;;25.53;52.15;100859.31;1721186;82;27503;-64
2021/08/12 07:49:07;;;;;;;2.67;2.47;;;;;;;25.68;52.50;100865.02;1720721;83;26242;-65
2021/08/12 07:51:34;;;;;;;6.35;2.85;;;;;;;25.84;52.28;100865.18;1721165;82;25885;-65
2021/08/12 07:54:00;;;;;;;4.37;2.40;;;;;;;26.02;51.27;100872.88;1721502;82;25723;-64
2021/08/12 07:56:26;;;;;;;5.37;2.62;;;;;;;26.08;50.42;100871.28;1690843;83;25794;-63
2021/08/12 07:58:53;;;;;;;3.15;2.30;;;;;;;26.18;51.06;100873.02;1721219;83;25848;-65
2021/08/12 08:01:20;;;;;;;4.42;2.35;;;;;;;26.43;50.70;100870.13;1720382;83;26154;-63
2021/08/12 08:03:47;;;;;;;5.33;2.75;;;;;;;26.65;49.90;100877.16;1721304;82;26231;-65
2021/08/12 08:06:14;;;;;;;4.37;2.50;;;;;;;26.78;49.48;100872.52;1721252;83;26281;-63
2021/08/12 08:08:41;;;;;;;5.55;3.10;;;;;;;26.95;48.94;100870.24;1722242;82;25695;-65
2021/08/12 08:11:08;;;;;;;3.92;3.40;;;;;;;27.13;48.86;100873.47;1721296;82;27327;-64
2021/08/12 08:13:35;;;;;;;3.62;2.95;;;;;;;27.26;47.43;100873.17;1689282;83;25755;-66
2021/08/12 08:16:01;;;;;;;5.72;3.25;;;;;;;27.29;47.26;100877.13;1722129;82;25736;-64
2021/08/12 08:18:28;;;;;;;3.00;2.70;;;;;;;27.28;46.63;100879.12;1721116;82;26418;-66
2021/08/12 08:20:54;;;;;;;6.53;3.25;;;;;;;27.24;46.54;100869.98;1721047;83;25659;-64
2021/08/12 08:23:21;;;;;;;4.45;3.17;;;;;;;27.37;46.87;100875.88;1721143;82;28077;-65
2021/08/12 08:25:47;;;;;;;6.90;3.02;;;;;;;27.49;46.61;100879.52;1722336;82;25826;-65
2021/08/12 08:28:13;;;;;;;4.10;2.60;;;;;;;27.70;46.49;100879.12;1720510;82;25781;-64
2021/08/12 08:30:40;;;;;;;6.55;3.58;;;;;;;27.95;45.80;100877.49;1720780;83;26402;-64
2021/08/12 08:33:07;;;;;;;4.35;3.20;;;;;;;27.98;45.76;100878.05;1721925;82;25661;-65
2021/08/12 08:35:34;;;;;;;4.00;3.00;;;;;;;28.11;45.31;100885.23;1720695;83;27360;-65
2021/08/12 08:38:01;;;;;;;5.00;2.90;;;;;;;28.10;44.41;100886.45;1720718;83;26321;-65
2021/08/12 08:40:29;;;;;;;4.83;2.80;;;;;;;28.12;44.63;100879.88;1721385;82;25694;-65
2021/08/12 08:42:56;;;;;;;5.30;2.47;;;;;;;28.16;44.28;100886.78;1721241;82;25949;-65
2021/08/12 08:45:29;;;;;;;3.12;2.83;;;;;;;28.23;43.96;100886.69;1721646;82;25848;-65
2021/08/12 08:48:00;;;;;;;6.08;2.90;;;;;;;28.33;43.46;100876.02;1721505;82;27876;-65
2021/08/12 08:50:32;;;;;;;3.80;2.65;;;;;;;28.23;43.42;100878.34;1721315;82;25686;-65
2021/08/12 08:52:56;;;;;;;5.05;3.12;;;;;;;28.41;43.96;100879.52;1719663;82;25746;-65
2021/08/12 08:55:23;;;;;;;2.98;2.55;;;;;;;28.54;44.25;100877.75;1721184;83;25778;-65
2021/08/12 08:57:58;;;;;;;6.17;2.98;;;;;;;28.68;42.94;100883.12;1690665;83;26384;-65
2021/08/12 09:00:27;;;;;;;6.60;3.52;;;;;;;28.60;42.62;100885.05;1721413;82;27257;-65
2021/08/12 09:02:54;;;;;;;8.63;3.70;;;;;;;28.26;42.48;100882.47;1721382;82;25825;-65
2021/08/12 09:05:21;;;;;;;5.40;2.62;;;;;;;28.22;43.28;100888.69;1722454;82;25842;-64
2021/08/12 09:07:52;;;;;;;3.95;2.98;;;;;;;28.62;43.65;100879.26;1721275;82;25757;-64
2021/08/12 09:10:19;;;;;;;4.67;3.05;;;;;;;29.20;43.29;100885.34;1721338;82;25797;-70
2021/08/12 09:12:48;;;;;;;4.00;2.80;;;;;;;29.46;42.50;100882.32;1721508;82;27380;-64
2021/08/12 09:15:21;;;;;;;6.08;2.85;;;;;;;29.31;39.64;100880.39;1720953;82;25725;-64
2021/08/12 09:17:51;;;;;;;3.10;2.80;;;;;;;28.87;40.73;100887.22;1721518;82;26364;-61
2021/08/12 09:20:25;;;;;;;3.12;2.33;;;;;;;28.72;41.38;100887.86;1714371;83;25709;-62
2021/08/12 09:23:06;;;;;;;5.72;2.65;;;;;;;28.90;41.60;100882.81;1721420;82;25561;-62
2021/08/12 09:25:49;;;;;;;5.50;4.05;;;;;;;29.23;40.78;100878.34;1721222;82;27647;-62
2021/08/12 09:28:26;;;;;;;3.52;3.08;;;;;;;29.57;41.07;100880.11;1721005;83;26382;-62
2021/08/12 09:31:04;;;;;;;4.67;2.70;;;;;;;29.73;39.66;100880.02;1721066;82;25789;-63
2021/08/12 09:33:45;;;;;;;5.37;2.95;;;;;;;29.93;39.39;100887.05;1721571;82;25749;-62
2021/08/12 09:36:29;;;;;;;3.52;2.58;;;;;;;30.10;38.74;100887.91;1720427;82;26392;-63
2021/08/12 09:39:19;;;;;;;5.20;3.12;;;;;;;30.33;39.14;100888.43;1719745;83;27554;-63
2021/08/12 09:41:54;;;;;;;3.00;2.62;;;;;;;30.71;39.19;100890.19;1721315;82;25643;-63
2021/08/12 09:44:54;;;;;;;2.72;2.52;;;;;;;31.07;38.40;100891.37;1721057;82;25970;-63
2021/08/12 09:47:28;;;;;;;5.30;2.60;;;;;;;31.36;37.73;100891.44;1721388;82;25757;-63
2021/08/12 09:49:59;;;;;;;3.52;2.70;;;;;;;31.70;37.35;100896.39;1721250;82;25757;-62
2021/08/12 09:52:36;;;;;;;6.20;2.98;;;;;;;31.86;36.84;100882.96;1721592;82;28040;-62
2021/08/12 09:55:23;;;;;;;3.62;2.67;;;;;;;31.67;35.58;100892.48;1721913;82;25750;-62
2021/08/12 09:58:10;;;;;;;4.17;3.15;;;;;;;31.49;35.92;100887.95;1720839;83;25799;-63
2021/08/12 10:00:47;;;;;;;7.35;3.62;;;;;;;31.64;36.23;100889.16;1721416;82;25766;-63
2021/08/12 10:03:27;;;;;;;3.30;2.62;;;;;;;31.68;35.20;100884.25;1720311;82;26461;-63
2021/08/12 10:05:58;;;;;;;5.08;2.67;;;;;;;31.73;35.54;100878.73;1721302;82;27333;-63
2021/08/12 10:08:30;;;;;;;5.45;2.80;;;;;;;31.50;35.24;100894.53;1721202;82;26716;-63
2021/08/12 10:11:00;;;;;;;5.97;3.30;;;;;;;31.38;35.27;100890.41;1718837;83;25695;-63
2021/08/12 10:13:26;;;;;;;5.15;3.10;;;;;;;31.50;35.51;100888.10;1717225;82;25798;-63
2021/08/12 10:15:54;;;;;;;3.62;2.65;;;;;;;31.56;35.50;100884.36;1701247;84;25799;-63
2021/08/12 10:18:20;;;;;;;6.20;2.90;;;;;;;31.38;35.31;100890.41;1701119;84;27945;-63
2021/08/12 10:20:48;;;;;;;4.95;3.10;;;;;;;31.10;36.04;100885.70;1700763;84;25640;-63
2021/08/12 10:23:18;;;;;;;4.10;2.83;;;;;;;31.34;36.22;100891.09;1700882;84;25720;-63
2021/08/12 10:25:49;;;;;;;4.17;2.87;;;;;;;31.38;35.55;100893.80;1700708;84;25960;-63
2021/08/12 10:28:19;;;;;;;21.87;14.70;;;;;;;31.18;35.76;100892.53;1700689;83;25792;-62
2021/08/12 10:30:47;;;;;;;7.55;3.22;;;;;;;31.29;35.49;100880.45;1700931;84;27362;-62
2021/08/12 10:33:14;;;;;;;5.30;3.58;;;;;;;31.24;35.59;100893.55;1701224;83;25683;-62
2021/08/12 10:35:41;;;;;;;4.62;2.45;;;;;;;31.38;35.24;100893.80;1700790;84;26300;-63
2021/08/12 10:38:07;;;;;;;3.42;2.00;;;;;;;31.62;35.00;100900.78;1700822;84;25653;-64
2021/08/12 10:40:41;;;;;;;4.75;2.92;;;;;;;31.87;34.55;100892.31;1701182;83;25844;-64
2021/08/12 10:43:12;;;;;;;4.50;2.58;;;;;;;32.00;34.56;100900.13;1700595;84;27335;-64
2021/08/12 10:45:39;;;;;;;4.25;2.15;;;;;;;32.27;35.18;100904.60;1700970;84;25664;-64
2021/08/12 10:48:09;;;;;;;2.70;2.50;;;;;;;32.76;35.19;100908.53;1701050;84;25728;-64
2021/08/12 10:50:39;;;;;;;3.27;2.30;;;;;;;33.00;33.64;100895.58;1699491;84;25701;-63
2021/08/12 10:53:15;;;;;;;6.60;2.10;;;;;;;33.06;33.83;100894.39;1701117;84;25787;-63
2021/08/12 10:55:52;;;;;;;3.30;2.27;;;;;;;33.13;31.77;100891.34;1701170;84;26265;-63
2021/08/12 10:58:26;;;;;;;2.60;2.12;;;;;;;33.13;31.77;100891.34;1700785;83;25724;-66
2021/08/12 11:00:58;;;;;;;5.03;2.70;;;;;;;32.99;32.50;100894.63;1700735;83;25719;-64
2021/08/12 11:03:37;;;;;;;5.60;2.95;;;;;;;32.91;32.38;100892.66;1700897;83;25802;-63
2021/08/12 11:06:13;;;;;;;;;;;;;;;32.42;31.84;100894.36;1703710;83;25736;-63
2021/08/12 11:09:04;;;;;;;6.28;2.90;;;;;;;32.35;32.99;100896.16;1701155;84;25840;-63
2021/08/12 11:11:34;;;;;;;2.08;1.98;;;;;;;32.57;33.49;100892.70;1703825;84;25904;-63
2021/08/12 11:14:11;;;;;;;4.08;2.35;;;;;;;32.94;33.22;100893.94;1703264;82;25829;-64
2021/08/12 11:16:49;;;;;;;6.95;2.35;;;;;;;33.23;32.42;100888.83;1721060;82;25692;-63
2021/08/12 11:19:32;;;;;;;3.65;2.35;;;;;;;33.15;31.64;100888.89;1721346;83;25656;-64
2021/08/12 11:21:59;;;;;;;3.20;2.02;;;;;;;32.97;32.15;100890.87;1721101;82;28001;-63
2021/08/12 11:24:30;;;;;;;4.00;2.35;;;;;;;32.61;31.38;100886.41;1720810;83;25702;-63
2021/08/12 11:27:05;;;;;;;3.15;2.25;;;;;;;32.31;31.51;100882.10;1720638;83;26374;-63
2021/08/12 11:29:36;;;;;;;3.62;2.45;;;;;;;32.15;32.20;100881.58;1719800;83;25763;-64
2021/08/12 11:32:10;;;;;;;3.10;2.40;;;;;;;32.32;32.65;100885.86;1720630;83;25720;-64